sensor_id;sensor_type;location;lat;lon;timestamp;P1;durP1;ratioP1;P2;durP2;ratioP2
68256;SDS011;55069;51.568;4.656;2022-10-17T00:01:11;9.45;;;6.70;;
68256;SDS011;55069;51.568;4.656;2022-10-17T00:03:37;12.13;;;7.27;;
68256;SDS011;55069;51.568;4.656;2022-10-17T00:06:06;12.57;;;7.50;;
68256;SDS011;55069;51.568;4.656;2022-10-17T00:08:34;12.02;;;6.43;;
68256;SDS011;55069;51.568;4.656;2022-10-17T00:11:01;10.82;;;6.82;;
68256;SDS011;55069;51.568;4.656;2022-10-17T00:13:30;9.07;;;6.78;;
68256;SDS011;55069;51.568;4.656;2022-10-17T00:15:56;8.53;;;6.03;;
68256;SDS011;55069;51.568;4.656;2022-10-17T00:18:22;10.77;;;7.65;;
68256;SDS011;55069;51.568;4.656;2022-10-17T00:20:48;15.88;;;7.80;;
68256;SDS011;55069;51.568;4.656;2022-10-17T00:23:14;13.45;;;8.73;;
68256;SDS011;55069;51.568;4.656;2022-10-17T00:25:40;12.77;;;8.67;;
68256;SDS011;55069;51.568;4.656;2022-10-17T00:28:07;14.60;;;9.40;;
68256;SDS011;55069;51.568;4.656;2022-10-17T00:30:34;13.70;;;9.07;;
68256;SDS011;55069;51.568;4.656;2022-10-17T00:33:00;15.20;;;8.93;;
68256;SDS011;55069;51.568;4.656;2022-10-17T00:35:26;14.13;;;9.10;;
68256;SDS011;55069;51.568;4.656;2022-10-17T00:37:51;13.63;;;8.95;;
68256;SDS011;55069;51.568;4.656;2022-10-17T00:40:17;13.73;;;8.97;;
68256;SDS011;55069;51.568;4.656;2022-10-17T00:42:45;12.68;;;9.48;;
68256;SDS011;55069;51.568;4.656;2022-10-17T00:47:41;18.20;;;9.57;;
68256;SDS011;55069;51.568;4.656;2022-10-17T00:50:09;19.23;;;9.93;;
68256;SDS011;55069;51.568;4.656;2022-10-17T00:52:37;11.70;;;9.07;;
68256;SDS011;55069;51.568;4.656;2022-10-17T00:55:24;12.67;;;8.80;;
68256;SDS011;55069;51.568;4.656;2022-10-17T00:57:50;15.60;;;9.38;;
68256;SDS011;55069;51.568;4.656;2022-10-17T01:00:17;12.25;;;8.75;;
68256;SDS011;55069;51.568;4.656;2022-10-17T01:02:43;13.43;;;9.00;;
68256;SDS011;55069;51.568;4.656;2022-10-17T01:05:10;13.40;;;9.65;;
68256;SDS011;55069;51.568;4.656;2022-10-17T01:07:36;15.30;;;8.90;;
68256;SDS011;55069;51.568;4.656;2022-10-17T01:10:04;12.88;;;9.82;;
68256;SDS011;55069;51.568;4.656;2022-10-17T01:15:28;16.77;;;9.73;;
68256;SDS011;55069;51.568;4.656;2022-10-17T01:18:07;15.80;;;9.40;;
68256;SDS011;55069;51.568;4.656;2022-10-17T01:23:17;18.83;;;10.45;;
68256;SDS011;55069;51.568;4.656;2022-10-17T01:25:56;15.85;;;10.70;;
68256;SDS011;55069;51.568;4.656;2022-10-17T01:31:21;17.33;;;10.75;;
68256;SDS011;55069;51.568;4.656;2022-10-17T01:36:33;20.05;;;12.27;;
68256;SDS011;55069;51.568;4.656;2022-10-17T01:47:28;20.45;;;11.75;;
68256;SDS011;55069;51.568;4.656;2022-10-17T01:49:56;16.90;;;11.23;;
68256;SDS011;55069;51.568;4.656;2022-10-17T01:52:28;14.65;;;10.52;;
68256;SDS011;55069;51.568;4.656;2022-10-17T01:57:34;15.77;;;10.73;;
68256;SDS011;55069;51.568;4.656;2022-10-17T02:00:05;14.38;;;9.98;;
68256;SDS011;55069;51.568;4.656;2022-10-17T02:02:39;15.15;;;10.65;;
68256;SDS011;55069;51.568;4.656;2022-10-17T02:05:06;18.48;;;10.93;;
68256;SDS011;55069;51.568;4.656;2022-10-17T02:07:32;13.17;;;10.57;;
68256;SDS011;55069;51.568;4.656;2022-10-17T02:09:58;18.17;;;10.50;;
68256;SDS011;55069;51.568;4.656;2022-10-17T02:23:27;16.02;;;10.32;;
68256;SDS011;55069;51.568;4.656;2022-10-17T02:29:05;16.33;;;11.07;;
68256;SDS011;55069;51.568;4.656;2022-10-17T02:34:29;15.55;;;10.65;;
68256;SDS011;55069;51.568;4.656;2022-10-17T02:36:59;17.63;;;10.65;;
68256;SDS011;55069;51.568;4.656;2022-10-17T02:39:27;16.15;;;10.77;;
68256;SDS011;55069;51.568;4.656;2022-10-17T02:41:55;19.07;;;10.70;;
68256;SDS011;55069;51.568;4.656;2022-10-17T02:44:23;18.33;;;11.30;;
68256;SDS011;55069;51.568;4.656;2022-10-17T02:46:54;16.55;;;11.63;;
68256;SDS011;55069;51.568;4.656;2022-10-17T02:49:37;21.95;;;11.00;;
68256;SDS011;55069;51.568;4.656;2022-10-17T02:52:13;17.98;;;11.15;;
68256;SDS011;55069;51.568;4.656;2022-10-17T02:55:05;18.67;;;11.13;;
68256;SDS011;55069;51.568;4.656;2022-10-17T02:57:42;18.65;;;10.80;;
68256;SDS011;55069;51.568;4.656;2022-10-17T03:00:13;15.23;;;10.63;;
68256;SDS011;55069;51.568;4.656;2022-10-17T03:02:44;23.58;;;11.27;;
68256;SDS011;55069;51.568;4.656;2022-10-17T03:05:14;17.77;;;11.35;;
68256;SDS011;55069;51.568;4.656;2022-10-17T03:08:06;16.53;;;10.30;;
68256;SDS011;55069;51.568;4.656;2022-10-17T03:10:32;19.02;;;10.75;;
68256;SDS011;55069;51.568;4.656;2022-10-17T03:12:57;17.20;;;10.83;;
68256;SDS011;55069;51.568;4.656;2022-10-17T03:15:23;19.25;;;11.07;;
68256;SDS011;55069;51.568;4.656;2022-10-17T03:17:49;15.07;;;10.57;;
68256;SDS011;55069;51.568;4.656;2022-10-17T03:20:15;19.88;;;12.30;;
68256;SDS011;55069;51.568;4.656;2022-10-17T03:22:41;24.07;;;11.60;;
68256;SDS011;55069;51.568;4.656;2022-10-17T03:25:08;15.77;;;10.20;;
68256;SDS011;55069;51.568;4.656;2022-10-17T03:27:34;16.23;;;10.40;;
68256;SDS011;55069;51.568;4.656;2022-10-17T03:30:00;15.50;;;10.88;;
68256;SDS011;55069;51.568;4.656;2022-10-17T03:32:27;15.80;;;10.00;;
68256;SDS011;55069;51.568;4.656;2022-10-17T03:34:52;16.25;;;9.93;;
68256;SDS011;55069;51.568;4.656;2022-10-17T03:37:18;17.33;;;9.90;;
68256;SDS011;55069;51.568;4.656;2022-10-17T03:39:43;18.92;;;10.23;;
68256;SDS011;55069;51.568;4.656;2022-10-17T03:42:09;17.10;;;10.40;;
68256;SDS011;55069;51.568;4.656;2022-10-17T03:44:35;17.33;;;10.20;;
68256;SDS011;55069;51.568;4.656;2022-10-17T03:47:00;15.60;;;10.25;;
68256;SDS011;55069;51.568;4.656;2022-10-17T03:49:27;19.23;;;10.57;;
68256;SDS011;55069;51.568;4.656;2022-10-17T03:51:52;15.93;;;9.88;;
68256;SDS011;55069;51.568;4.656;2022-10-17T03:54:18;16.73;;;10.13;;
68256;SDS011;55069;51.568;4.656;2022-10-17T03:56:44;16.50;;;10.65;;
68256;SDS011;55069;51.568;4.656;2022-10-17T03:59:13;17.15;;;10.32;;
68256;SDS011;55069;51.568;4.656;2022-10-17T04:01:41;17.63;;;10.37;;
68256;SDS011;55069;51.568;4.656;2022-10-17T04:04:07;18.27;;;11.07;;
68256;SDS011;55069;51.568;4.656;2022-10-17T04:06:35;15.40;;;10.65;;
68256;SDS011;55069;51.568;4.656;2022-10-17T04:09:01;16.13;;;10.40;;
68256;SDS011;55069;51.568;4.656;2022-10-17T04:11:38;17.10;;;9.80;;
68256;SDS011;55069;51.568;4.656;2022-10-17T04:14:04;18.42;;;9.93;;
68256;SDS011;55069;51.568;4.656;2022-10-17T04:16:30;19.03;;;10.17;;
68256;SDS011;55069;51.568;4.656;2022-10-17T04:18:59;14.55;;;9.98;;
68256;SDS011;55069;51.568;4.656;2022-10-17T04:21:29;22.08;;;9.40;;
68256;SDS011;55069;51.568;4.656;2022-10-17T04:23:58;15.07;;;10.00;;
68256;SDS011;55069;51.568;4.656;2022-10-17T04:26:41;15.98;;;9.63;;
68256;SDS011;55069;51.568;4.656;2022-10-17T04:29:07;17.43;;;9.93;;
68256;SDS011;55069;51.568;4.656;2022-10-17T04:31:32;15.38;;;9.73;;
68256;SDS011;55069;51.568;4.656;2022-10-17T04:34:21;20.27;;;11.15;;
68256;SDS011;55069;51.568;4.656;2022-10-17T04:36:46;19.30;;;9.98;;
68256;SDS011;55069;51.568;4.656;2022-10-17T04:39:12;13.10;;;9.53;;
68256;SDS011;55069;51.568;4.656;2022-10-17T04:41:39;17.77;;;9.75;;
68256;SDS011;55069;51.568;4.656;2022-10-17T04:44:05;18.73;;;9.75;;
68256;SDS011;55069;51.568;4.656;2022-10-17T04:46:35;21.00;;;10.63;;
68256;SDS011;55069;51.568;4.656;2022-10-17T04:49:00;18.00;;;9.90;;
68256;SDS011;55069;51.568;4.656;2022-10-17T04:51:27;16.65;;;10.00;;
68256;SDS011;55069;51.568;4.656;2022-10-17T04:54:15;20.27;;;9.50;;
68256;SDS011;55069;51.568;4.656;2022-10-17T04:56:44;17.02;;;10.10;;
68256;SDS011;55069;51.568;4.656;2022-10-17T04:59:11;16.93;;;9.27;;
68256;SDS011;55069;51.568;4.656;2022-10-17T05:01:38;20.45;;;9.27;;
68256;SDS011;55069;51.568;4.656;2022-10-17T05:04:05;15.07;;;9.20;;
68256;SDS011;55069;51.568;4.656;2022-10-17T05:06:30;16.77;;;9.85;;
68256;SDS011;55069;51.568;4.656;2022-10-17T05:09:24;21.07;;;9.27;;
68256;SDS011;55069;51.568;4.656;2022-10-17T05:11:50;17.38;;;8.95;;
68256;SDS011;55069;51.568;4.656;2022-10-17T05:14:16;14.93;;;8.93;;
68256;SDS011;55069;51.568;4.656;2022-10-17T05:16:42;18.93;;;9.43;;
68256;SDS011;55069;51.568;4.656;2022-10-17T05:19:08;10.27;;;8.03;;
68256;SDS011;55069;51.568;4.656;2022-10-17T05:21:40;13.57;;;8.32;;
68256;SDS011;55069;51.568;4.656;2022-10-17T05:24:06;11.85;;;8.18;;
68256;SDS011;55069;51.568;4.656;2022-10-17T05:26:33;16.73;;;7.93;;
68256;SDS011;55069;51.568;4.656;2022-10-17T05:28:59;15.90;;;8.50;;
68256;SDS011;55069;51.568;4.656;2022-10-17T05:31:28;10.70;;;8.07;;
68256;SDS011;55069;51.568;4.656;2022-10-17T05:33:54;12.88;;;7.72;;
68256;SDS011;55069;51.568;4.656;2022-10-17T05:36:21;17.65;;;8.15;;
68256;SDS011;55069;51.568;4.656;2022-10-17T05:38:50;17.83;;;9.48;;
68256;SDS011;55069;51.568;4.656;2022-10-17T05:41:16;19.17;;;9.17;;
68256;SDS011;55069;51.568;4.656;2022-10-17T05:43:42;11.57;;;7.90;;
68256;SDS011;55069;51.568;4.656;2022-10-17T05:46:10;18.42;;;8.60;;
68256;SDS011;55069;51.568;4.656;2022-10-17T05:48:35;10.83;;;8.80;;
68256;SDS011;55069;51.568;4.656;2022-10-17T05:51:05;14.25;;;8.45;;
68256;SDS011;55069;51.568;4.656;2022-10-17T05:53:35;16.58;;;9.77;;
68256;SDS011;55069;51.568;4.656;2022-10-17T05:56:06;17.40;;;9.50;;
68256;SDS011;55069;51.568;4.656;2022-10-17T05:58:34;16.65;;;9.55;;
68256;SDS011;55069;51.568;4.656;2022-10-17T06:01:02;14.05;;;10.23;;
68256;SDS011;55069;51.568;4.656;2022-10-17T06:03:30;16.35;;;10.55;;
68256;SDS011;55069;51.568;4.656;2022-10-17T06:05:55;17.07;;;11.57;;
68256;SDS011;55069;51.568;4.656;2022-10-17T06:08:27;16.30;;;10.90;;
68256;SDS011;55069;51.568;4.656;2022-10-17T06:10:52;17.33;;;11.50;;
68256;SDS011;55069;51.568;4.656;2022-10-17T06:13:18;19.60;;;11.60;;
68256;SDS011;55069;51.568;4.656;2022-10-17T06:15:47;19.90;;;11.10;;
68256;SDS011;55069;51.568;4.656;2022-10-17T06:18:13;20.80;;;11.80;;
68256;SDS011;55069;51.568;4.656;2022-10-17T06:20:39;22.33;;;11.65;;
68256;SDS011;55069;51.568;4.656;2022-10-17T06:23:05;20.13;;;11.10;;
68256;SDS011;55069;51.568;4.656;2022-10-17T06:25:51;16.38;;;10.95;;
68256;SDS011;55069;51.568;4.656;2022-10-17T06:28:17;16.58;;;11.35;;
68256;SDS011;55069;51.568;4.656;2022-10-17T06:30:42;21.20;;;10.83;;
68256;SDS011;55069;51.568;4.656;2022-10-17T06:33:08;17.73;;;11.47;;
68256;SDS011;55069;51.568;4.656;2022-10-17T06:35:34;24.30;;;11.85;;
68256;SDS011;55069;51.568;4.656;2022-10-17T06:38:00;20.63;;;10.93;;
68256;SDS011;55069;51.568;4.656;2022-10-17T06:40:26;15.98;;;10.48;;
68256;SDS011;55069;51.568;4.656;2022-10-17T06:42:52;19.13;;;10.25;;
68256;SDS011;55069;51.568;4.656;2022-10-17T06:45:39;20.23;;;9.88;;
68256;SDS011;55069;51.568;4.656;2022-10-17T06:48:15;18.10;;;9.70;;
68256;SDS011;55069;51.568;4.656;2022-10-17T06:50:42;17.30;;;9.90;;
68256;SDS011;55069;51.568;4.656;2022-10-17T06:53:17;18.05;;;9.55;;
68256;SDS011;55069;51.568;4.656;2022-10-17T06:55:51;14.05;;;9.20;;
68256;SDS011;55069;51.568;4.656;2022-10-17T06:58:37;17.73;;;8.90;;
68256;SDS011;55069;51.568;4.656;2022-10-17T07:01:09;18.33;;;9.30;;
68256;SDS011;55069;51.568;4.656;2022-10-17T07:03:36;14.50;;;8.50;;
68256;SDS011;55069;51.568;4.656;2022-10-17T07:06:03;17.85;;;8.45;;
68256;SDS011;55069;51.568;4.656;2022-10-17T07:08:29;16.15;;;9.02;;
68256;SDS011;55069;51.568;4.656;2022-10-17T07:10:58;13.25;;;8.38;;
68256;SDS011;55069;51.568;4.656;2022-10-17T07:13:25;16.70;;;9.27;;
68256;SDS011;55069;51.568;4.656;2022-10-17T07:15:50;19.38;;;9.00;;
68256;SDS011;55069;51.568;4.656;2022-10-17T07:18:16;20.67;;;9.20;;
68256;SDS011;55069;51.568;4.656;2022-10-17T07:20:42;14.90;;;8.10;;
68256;SDS011;55069;51.568;4.656;2022-10-17T07:23:08;16.97;;;8.10;;
68256;SDS011;55069;51.568;4.656;2022-10-17T07:25:35;13.18;;;8.68;;
68256;SDS011;55069;51.568;4.656;2022-10-17T07:28:04;18.13;;;9.35;;
68256;SDS011;55069;51.568;4.656;2022-10-17T07:30:31;13.52;;;9.15;;
68256;SDS011;55069;51.568;4.656;2022-10-17T07:33:02;23.47;;;9.87;;
68256;SDS011;55069;51.568;4.656;2022-10-17T07:35:27;19.63;;;9.88;;
68256;SDS011;55069;51.568;4.656;2022-10-17T07:37:53;18.98;;;9.52;;
68256;SDS011;55069;51.568;4.656;2022-10-17T07:40:19;20.63;;;10.30;;
68256;SDS011;55069;51.568;4.656;2022-10-17T07:42:45;19.38;;;9.38;;
68256;SDS011;55069;51.568;4.656;2022-10-17T07:45:12;15.13;;;9.45;;
68256;SDS011;55069;51.568;4.656;2022-10-17T07:47:37;18.83;;;10.13;;
68256;SDS011;55069;51.568;4.656;2022-10-17T07:50:06;17.65;;;8.73;;
68256;SDS011;55069;51.568;4.656;2022-10-17T07:52:31;14.25;;;9.75;;
68256;SDS011;55069;51.568;4.656;2022-10-17T07:54:58;15.05;;;9.75;;
68256;SDS011;55069;51.568;4.656;2022-10-17T07:57:23;19.77;;;10.27;;
68256;SDS011;55069;51.568;4.656;2022-10-17T07:59:49;25.25;;;10.68;;
68256;SDS011;55069;51.568;4.656;2022-10-17T08:02:23;14.00;;;9.65;;
68256;SDS011;55069;51.568;4.656;2022-10-17T08:04:50;16.47;;;10.73;;
68256;SDS011;55069;51.568;4.656;2022-10-17T08:07:16;16.30;;;9.82;;
68256;SDS011;55069;51.568;4.656;2022-10-17T08:09:44;20.48;;;10.02;;
68256;SDS011;55069;51.568;4.656;2022-10-17T08:12:12;15.73;;;10.07;;
68256;SDS011;55069;51.568;4.656;2022-10-17T08:14:39;15.68;;;10.75;;
68256;SDS011;55069;51.568;4.656;2022-10-17T08:17:05;16.70;;;10.07;;
68256;SDS011;55069;51.568;4.656;2022-10-17T08:19:31;21.20;;;10.32;;
68256;SDS011;55069;51.568;4.656;2022-10-17T08:21:56;19.27;;;10.57;;
68256;SDS011;55069;51.568;4.656;2022-10-17T08:24:23;20.45;;;10.32;;
68256;SDS011;55069;51.568;4.656;2022-10-17T08:26:49;18.30;;;10.80;;
68256;SDS011;55069;51.568;4.656;2022-10-17T08:29:17;20.63;;;11.25;;
68256;SDS011;55069;51.568;4.656;2022-10-17T08:31:44;19.02;;;11.23;;
68256;SDS011;55069;51.568;4.656;2022-10-17T08:34:09;21.90;;;11.27;;
68256;SDS011;55069;51.568;4.656;2022-10-17T08:36:35;19.55;;;11.07;;
68256;SDS011;55069;51.568;4.656;2022-10-17T08:39:00;18.13;;;10.83;;
68256;SDS011;55069;51.568;4.656;2022-10-17T08:41:36;14.95;;;9.88;;
68256;SDS011;55069;51.568;4.656;2022-10-17T08:44:16;16.02;;;10.10;;
68256;SDS011;55069;51.568;4.656;2022-10-17T08:47:28;24.23;;;10.87;;
68256;SDS011;55069;51.568;4.656;2022-10-17T08:50:01;27.17;;;10.77;;
68256;SDS011;55069;51.568;4.656;2022-10-17T08:52:37;19.65;;;10.70;;
68256;SDS011;55069;51.568;4.656;2022-10-17T08:55:12;16.35;;;10.57;;
68256;SDS011;55069;51.568;4.656;2022-10-17T08:57:41;19.15;;;11.18;;
68256;SDS011;55069;51.568;4.656;2022-10-17T09:00:12;22.77;;;11.90;;
68256;SDS011;55069;51.568;4.656;2022-10-17T09:02:49;22.33;;;11.98;;
68256;SDS011;55069;51.568;4.656;2022-10-17T09:05:36;19.83;;;12.25;;
68256;SDS011;55069;51.568;4.656;2022-10-17T09:08:27;17.77;;;12.13;;
68256;SDS011;55069;51.568;4.656;2022-10-17T09:21:57;17.35;;;9.95;;
68256;SDS011;55069;51.568;4.656;2022-10-17T09:24:48;14.50;;;9.40;;
68256;SDS011;55069;51.568;4.656;2022-10-17T09:27:33;12.63;;;8.80;;
68256;SDS011;55069;51.568;4.656;2022-10-17T09:32:49;13.63;;;9.27;;
68256;SDS011;55069;51.568;4.656;2022-10-17T09:35:15;12.10;;;9.13;;
68256;SDS011;55069;51.568;4.656;2022-10-17T09:37:42;15.50;;;8.25;;
68256;SDS011;55069;51.568;4.656;2022-10-17T09:40:13;14.17;;;8.70;;
68256;SDS011;55069;51.568;4.656;2022-10-17T09:42:50;16.58;;;8.48;;
68256;SDS011;55069;51.568;4.656;2022-10-17T09:45:17;12.68;;;7.82;;
68256;SDS011;55069;51.568;4.656;2022-10-17T09:50:33;10.32;;;7.55;;
68256;SDS011;55069;51.568;4.656;2022-10-17T09:53:00;10.07;;;6.90;;
68256;SDS011;55069;51.568;4.656;2022-10-17T09:55:36;12.30;;;7.03;;
68256;SDS011;55069;51.568;4.656;2022-10-17T09:58:04;11.02;;;6.95;;
68256;SDS011;55069;51.568;4.656;2022-10-17T10:03:19;9.68;;;7.40;;
68256;SDS011;55069;51.568;4.656;2022-10-17T10:06:05;14.23;;;6.80;;
68256;SDS011;55069;51.568;4.656;2022-10-17T10:08:56;13.73;;;7.60;;
68256;SDS011;55069;51.568;4.656;2022-10-17T10:17:00;11.25;;;6.88;;
68256;SDS011;55069;51.568;4.656;2022-10-17T10:22:00;10.13;;;6.50;;
68256;SDS011;55069;51.568;4.656;2022-10-17T10:24:28;11.98;;;7.40;;
68256;SDS011;55069;51.568;4.656;2022-10-17T10:26:55;9.85;;;7.20;;
68256;SDS011;55069;51.568;4.656;2022-10-17T10:35:23;9.88;;;7.00;;
68256;SDS011;55069;51.568;4.656;2022-10-17T10:37:42;9.95;;;7.30;;
68256;SDS011;55069;51.568;4.656;2022-10-17T10:42:54;11.65;;;7.30;;
68256;SDS011;55069;51.568;4.656;2022-10-17T10:45:23;9.73;;;6.37;;
68256;SDS011;55069;51.568;4.656;2022-10-17T10:47:54;12.75;;;6.15;;
68256;SDS011;55069;51.568;4.656;2022-10-17T10:50:23;12.52;;;7.43;;
68256;SDS011;55069;51.568;4.656;2022-10-17T10:53:07;9.45;;;6.93;;
68256;SDS011;55069;51.568;4.656;2022-10-17T10:55:40;9.88;;;7.03;;
68256;SDS011;55069;51.568;4.656;2022-10-17T11:00:59;9.65;;;7.15;;
68256;SDS011;55069;51.568;4.656;2022-10-17T11:03:31;9.27;;;7.18;;
68256;SDS011;55069;51.568;4.656;2022-10-17T11:06:04;12.35;;;6.95;;
68256;SDS011;55069;51.568;4.656;2022-10-17T11:08:51;9.93;;;7.10;;
68256;SDS011;55069;51.568;4.656;2022-10-17T11:11:37;9.83;;;7.13;;
68256;SDS011;55069;51.568;4.656;2022-10-17T11:14:12;10.93;;;7.55;;
68256;SDS011;55069;51.568;4.656;2022-10-17T11:16:45;11.80;;;6.97;;
68256;SDS011;55069;51.568;4.656;2022-10-17T11:19:14;10.90;;;6.65;;
68256;SDS011;55069;51.568;4.656;2022-10-17T11:24:41;10.60;;;6.83;;
68256;SDS011;55069;51.568;4.656;2022-10-17T11:27:12;10.75;;;6.80;;
68256;SDS011;55069;51.568;4.656;2022-10-17T11:29:39;11.60;;;6.30;;
68256;SDS011;55069;51.568;4.656;2022-10-17T11:34:42;9.43;;;6.40;;
68256;SDS011;55069;51.568;4.656;2022-10-17T11:37:15;10.23;;;6.72;;
68256;SDS011;55069;51.568;4.656;2022-10-17T11:42:22;9.75;;;6.53;;
68256;SDS011;55069;51.568;4.656;2022-10-17T11:44:53;10.98;;;5.68;;
68256;SDS011;55069;51.568;4.656;2022-10-17T11:47:37;6.25;;;5.55;;
68256;SDS011;55069;51.568;4.656;2022-10-17T11:52:42;5.97;;;5.20;;
68256;SDS011;55069;51.568;4.656;2022-10-17T11:55:24;6.53;;;4.75;;
68256;SDS011;55069;51.568;4.656;2022-10-17T11:58:04;6.70;;;5.00;;
68256;SDS011;55069;51.568;4.656;2022-10-17T12:11:49;12.17;;;6.07;;
68256;SDS011;55069;51.568;4.656;2022-10-17T12:17:02;9.35;;;6.32;;
68256;SDS011;55069;51.568;4.656;2022-10-17T12:19:33;10.65;;;6.70;;
68256;SDS011;55069;51.568;4.656;2022-10-17T12:22:17;10.25;;;7.07;;
68256;SDS011;55069;51.568;4.656;2022-10-17T12:24:45;9.07;;;6.80;;
68256;SDS011;55069;51.568;4.656;2022-10-17T12:30:14;9.88;;;7.22;;
68256;SDS011;55069;51.568;4.656;2022-10-17T12:35:41;10.30;;;7.18;;
68256;SDS011;55069;51.568;4.656;2022-10-17T12:49:15;12.55;;;8.18;;
68256;SDS011;55069;51.568;4.656;2022-10-17T12:51:25;11.38;;;7.80;;
68256;SDS011;55069;51.568;4.656;2022-10-17T12:53:58;11.30;;;7.65;;
68256;SDS011;55069;51.568;4.656;2022-10-17T12:56:45;10.73;;;7.73;;
68256;SDS011;55069;51.568;4.656;2022-10-17T12:59:16;9.80;;;7.10;;
68256;SDS011;55069;51.568;4.656;2022-10-17T13:01:54;12.40;;;8.05;;
68256;SDS011;55069;51.568;4.656;2022-10-17T13:04:23;11.10;;;7.60;;
68256;SDS011;55069;51.568;4.656;2022-10-17T13:06:50;13.80;;;7.93;;
68256;SDS011;55069;51.568;4.656;2022-10-17T13:09:26;13.43;;;7.77;;
68256;SDS011;55069;51.568;4.656;2022-10-17T13:11:54;13.95;;;8.02;;
68256;SDS011;55069;51.568;4.656;2022-10-17T13:14:23;10.68;;;8.32;;
68256;SDS011;55069;51.568;4.656;2022-10-17T13:19:23;10.20;;;7.65;;
68256;SDS011;55069;51.568;4.656;2022-10-17T13:21:51;13.63;;;7.97;;
68256;SDS011;55069;51.568;4.656;2022-10-17T13:24:33;11.82;;;7.70;;
68256;SDS011;55069;51.568;4.656;2022-10-17T13:27:01;12.27;;;7.85;;
68256;SDS011;55069;51.568;4.656;2022-10-17T13:29:28;14.52;;;8.52;;
68256;SDS011;55069;51.568;4.656;2022-10-17T13:31:59;12.13;;;7.88;;
68256;SDS011;55069;51.568;4.656;2022-10-17T13:34:29;13.03;;;8.63;;
68256;SDS011;55069;51.568;4.656;2022-10-17T13:36:59;11.63;;;8.18;;
68256;SDS011;55069;51.568;4.656;2022-10-17T13:39:33;10.75;;;8.57;;
68256;SDS011;55069;51.568;4.656;2022-10-17T13:42:03;11.30;;;8.23;;
68256;SDS011;55069;51.568;4.656;2022-10-17T13:44:31;15.47;;;8.73;;
68256;SDS011;55069;51.568;4.656;2022-10-17T13:46:58;14.73;;;8.75;;
68256;SDS011;55069;51.568;4.656;2022-10-17T13:49:34;12.07;;;8.45;;
68256;SDS011;55069;51.568;4.656;2022-10-17T13:52:05;14.40;;;8.05;;
68256;SDS011;55069;51.568;4.656;2022-10-17T13:54:39;13.35;;;8.43;;
68256;SDS011;55069;51.568;4.656;2022-10-17T13:59:53;10.20;;;6.95;;
68256;SDS011;55069;51.568;4.656;2022-10-17T14:02:22;11.73;;;7.38;;
68256;SDS011;55069;51.568;4.656;2022-10-17T14:07:38;9.70;;;6.80;;
68256;SDS011;55069;51.568;4.656;2022-10-17T14:10:16;11.98;;;6.90;;
68256;SDS011;55069;51.568;4.656;2022-10-17T14:12:43;11.35;;;6.68;;
68256;SDS011;55069;51.568;4.656;2022-10-17T14:15:08;15.37;;;7.53;;
68256;SDS011;55069;51.568;4.656;2022-10-17T14:17:38;10.18;;;6.38;;
68256;SDS011;55069;51.568;4.656;2022-10-17T14:20:04;14.05;;;7.13;;
68256;SDS011;55069;51.568;4.656;2022-10-17T14:22:35;12.60;;;6.57;;
68256;SDS011;55069;51.568;4.656;2022-10-17T14:25:01;12.13;;;7.07;;
68256;SDS011;55069;51.568;4.656;2022-10-17T14:27:35;12.10;;;6.43;;
68256;SDS011;55069;51.568;4.656;2022-10-17T14:30:27;8.52;;;6.25;;
68256;SDS011;55069;51.568;4.656;2022-10-17T14:32:53;14.20;;;6.70;;
68256;SDS011;55069;51.568;4.656;2022-10-17T14:35:21;10.35;;;6.38;;
68256;SDS011;55069;51.568;4.656;2022-10-17T14:37:48;8.83;;;6.30;;
68256;SDS011;55069;51.568;4.656;2022-10-17T14:40:16;10.13;;;6.25;;
68256;SDS011;55069;51.568;4.656;2022-10-17T14:42:44;11.23;;;6.80;;
68256;SDS011;55069;51.568;4.656;2022-10-17T14:45:11;12.23;;;5.97;;
68256;SDS011;55069;51.568;4.656;2022-10-17T14:47:42;7.47;;;6.13;;
68256;SDS011;55069;51.568;4.656;2022-10-17T14:52:36;8.90;;;6.38;;
68256;SDS011;55069;51.568;4.656;2022-10-17T14:55:18;9.07;;;6.18;;
68256;SDS011;55069;51.568;4.656;2022-10-17T14:57:49;10.03;;;6.80;;
68256;SDS011;55069;51.568;4.656;2022-10-17T15:00:15;11.25;;;6.70;;
68256;SDS011;55069;51.568;4.656;2022-10-17T15:02:43;10.20;;;6.22;;
68256;SDS011;55069;51.568;4.656;2022-10-17T15:05:10;11.00;;;6.68;;
68256;SDS011;55069;51.568;4.656;2022-10-17T15:07:35;12.05;;;6.90;;
68256;SDS011;55069;51.568;4.656;2022-10-17T15:10:01;10.43;;;6.13;;
68256;SDS011;55069;51.568;4.656;2022-10-17T15:12:27;11.57;;;6.38;;
68256;SDS011;55069;51.568;4.656;2022-10-17T15:14:53;10.20;;;6.40;;
68256;SDS011;55069;51.568;4.656;2022-10-17T15:17:23;10.32;;;6.07;;
68256;SDS011;55069;51.568;4.656;2022-10-17T15:19:51;10.38;;;6.30;;
68256;SDS011;55069;51.568;4.656;2022-10-17T15:22:16;9.80;;;5.72;;
68256;SDS011;55069;51.568;4.656;2022-10-17T15:24:42;11.27;;;6.40;;
68256;SDS011;55069;51.568;4.656;2022-10-17T15:27:14;11.32;;;6.70;;
68256;SDS011;55069;51.568;4.656;2022-10-17T15:29:41;9.10;;;6.63;;
68256;SDS011;55069;51.568;4.656;2022-10-17T15:32:07;10.43;;;6.22;;
68256;SDS011;55069;51.568;4.656;2022-10-17T15:34:33;12.03;;;6.47;;
68256;SDS011;55069;51.568;4.656;2022-10-17T15:36:58;13.60;;;7.65;;
68256;SDS011;55069;51.568;4.656;2022-10-17T15:39:24;12.52;;;7.00;;
68256;SDS011;55069;51.568;4.656;2022-10-17T15:41:49;12.67;;;7.50;;
68256;SDS011;55069;51.568;4.656;2022-10-17T15:44:15;10.80;;;7.63;;
68256;SDS011;55069;51.568;4.656;2022-10-17T15:46:40;10.00;;;7.17;;
68256;SDS011;55069;51.568;4.656;2022-10-17T15:49:10;13.05;;;7.53;;
68256;SDS011;55069;51.568;4.656;2022-10-17T15:51:38;10.37;;;7.37;;
68256;SDS011;55069;51.568;4.656;2022-10-17T15:54:03;9.02;;;6.85;;
68256;SDS011;55069;51.568;4.656;2022-10-17T15:56:31;12.63;;;7.17;;
68256;SDS011;55069;51.568;4.656;2022-10-17T15:59:03;14.95;;;7.28;;
68256;SDS011;55069;51.568;4.656;2022-10-17T16:01:31;15.02;;;7.25;;
68256;SDS011;55069;51.568;4.656;2022-10-17T16:03:58;16.85;;;7.78;;
68256;SDS011;55069;51.568;4.656;2022-10-17T16:06:24;15.32;;;7.20;;
68256;SDS011;55069;51.568;4.656;2022-10-17T16:08:50;8.73;;;6.37;;
68256;SDS011;55069;51.568;4.656;2022-10-17T16:14:00;14.63;;;7.05;;
68256;SDS011;55069;51.568;4.656;2022-10-17T16:16:27;16.55;;;7.07;;
68256;SDS011;55069;51.568;4.656;2022-10-17T16:18:53;13.25;;;7.18;;
68256;SDS011;55069;51.568;4.656;2022-10-17T16:21:19;12.73;;;7.10;;
68256;SDS011;55069;51.568;4.656;2022-10-17T16:23:49;11.32;;;6.90;;
68256;SDS011;55069;51.568;4.656;2022-10-17T16:26:14;14.73;;;7.18;;
68256;SDS011;55069;51.568;4.656;2022-10-17T16:28:41;13.30;;;7.90;;
68256;SDS011;55069;51.568;4.656;2022-10-17T16:31:18;10.57;;;6.93;;
68256;SDS011;55069;51.568;4.656;2022-10-17T16:33:46;12.15;;;8.00;;
68256;SDS011;55069;51.568;4.656;2022-10-17T16:36:12;10.77;;;7.47;;
68256;SDS011;55069;51.568;4.656;2022-10-17T16:38:38;16.10;;;8.30;;
68256;SDS011;55069;51.568;4.656;2022-10-17T16:41:04;12.13;;;8.93;;
68256;SDS011;55069;51.568;4.656;2022-10-17T16:43:33;17.85;;;9.32;;
68256;SDS011;55069;51.568;4.656;2022-10-17T16:46:02;13.55;;;8.68;;
68256;SDS011;55069;51.568;4.656;2022-10-17T16:48:28;12.20;;;7.88;;
68256;SDS011;55069;51.568;4.656;2022-10-17T16:50:53;10.63;;;8.00;;
68256;SDS011;55069;51.568;4.656;2022-10-17T16:53:19;12.93;;;8.60;;
68256;SDS011;55069;51.568;4.656;2022-10-17T16:55:44;14.05;;;7.97;;
68256;SDS011;55069;51.568;4.656;2022-10-17T16:58:10;13.48;;;9.75;;
68256;SDS011;55069;51.568;4.656;2022-10-17T17:00:37;20.90;;;10.40;;